createdAt,value
2018-05-27T20:29:53.792Z,1014.78
2018-05-27T20:30:55.168Z,1014.77
2018-05-27T20:31:56.554Z,1014.78
2018-05-27T20:32:57.942Z,1014.71
2018-05-27T20:33:59.279Z,1014.79
2018-05-27T20:35:00.665Z,1014.82
2018-05-27T20:36:02.063Z,1014.81
2018-05-27T20:37:03.435Z,1014.83
2018-05-27T20:38:04.834Z,1014.76
2018-05-27T20:39:06.214Z,1014.76
2018-05-27T20:40:07.590Z,1014.63
2018-05-27T20:41:08.971Z,1014.67
2018-05-27T20:42:10.388Z,1014.67
2018-05-27T20:43:11.743Z,1014.69
2018-05-27T20:44:13.131Z,1014.72
2018-05-27T20:45:14.524Z,1014.66
2018-05-27T20:46:15.918Z,1014.67
2018-05-27T20:47:17.304Z,1014.65
2018-05-27T20:48:18.697Z,1014.62
2018-05-27T20:49:20.073Z,1014.51
2018-05-27T20:50:21.466Z,1014.54
2018-05-27T20:51:22.862Z,1014.58
2018-05-27T20:52:24.255Z,1014.54
2018-05-27T20:53:25.643Z,1014.56
2018-05-27T20:54:27.035Z,1014.60
2018-05-27T20:55:28.418Z,1014.60
2018-05-27T20:56:29.821Z,1014.59
2018-05-27T20:57:31.218Z,1014.67
2018-05-27T20:58:32.602Z,1014.62
2018-05-27T20:59:33.990Z,1014.61
2018-05-27T21:00:35.379Z,1014.69
2018-05-27T21:01:36.766Z,1014.70
2018-05-27T21:02:38.150Z,1014.71
2018-05-27T21:03:39.550Z,1014.74
2018-05-27T21:04:40.944Z,1014.72
2018-05-27T21:05:42.322Z,1014.69
2018-05-27T21:06:43.728Z,1014.65
2018-05-27T21:07:45.101Z,1014.64
2018-05-27T21:08:46.510Z,1014.64
2018-05-27T21:09:47.908Z,1014.56
2018-05-27T21:10:49.299Z,1014.59
2018-05-27T21:11:50.684Z,1014.59
2018-05-27T21:12:52.068Z,1014.56
2018-05-27T21:13:54.352Z,1014.56
2018-05-27T21:14:56.377Z,1014.55
2018-05-27T21:15:57.767Z,1014.54
2018-05-27T21:16:59.153Z,1014.59
2018-05-27T21:18:00.528Z,1014.61
2018-05-27T21:19:01.930Z,1014.61
2018-05-27T21:20:03.319Z,1014.57
2018-05-27T21:21:04.712Z,1014.61
2018-05-27T21:22:06.107Z,1014.60
2018-05-27T21:23:07.491Z,1014.57
2018-05-27T21:24:08.875Z,1014.55
2018-05-27T21:25:10.261Z,1014.54
2018-05-27T21:26:11.659Z,1014.52
2018-05-27T21:27:13.052Z,1014.46
2018-05-27T21:28:14.427Z,1014.49
2018-05-27T21:29:15.825Z,1014.49
2018-05-27T21:30:17.203Z,1014.45
2018-05-27T21:31:18.599Z,1014.43
2018-05-27T21:32:19.990Z,1014.45
2018-05-27T21:33:21.379Z,1014.43
2018-05-27T21:34:22.771Z,1014.42
2018-05-27T21:35:24.154Z,1014.43
2018-05-27T21:36:25.551Z,1014.41
2018-05-27T21:37:26.940Z,1014.42
2018-05-27T21:38:28.321Z,1014.44
2018-05-27T21:39:29.700Z,1014.44
2018-05-27T21:40:31.089Z,1014.48
2018-05-27T21:41:32.490Z,1014.55
2018-05-27T21:42:33.870Z,1014.49
2018-05-27T21:43:35.256Z,1014.52
2018-05-27T21:44:36.646Z,1014.50
2018-05-27T21:45:38.024Z,1014.52
2018-05-27T21:46:39.419Z,1014.54
2018-05-27T21:47:40.802Z,1014.54
2018-05-27T21:48:42.190Z,1014.57
2018-05-27T21:49:43.626Z,1014.54
2018-05-27T21:50:45.022Z,1014.53
2018-05-27T21:51:46.414Z,1014.51
2018-05-27T21:52:47.809Z,1014.54
2018-05-27T21:53:49.200Z,1014.54
2018-05-27T21:54:50.595Z,1014.55
2018-05-27T21:55:51.989Z,1014.53
2018-05-27T21:56:53.383Z,1014.56
2018-05-27T21:57:54.795Z,1014.51
2018-05-27T21:58:56.180Z,1014.52
2018-05-27T21:59:57.575Z,1014.55
2018-05-27T22:00:58.955Z,1014.52
2018-05-27T22:02:00.340Z,1014.55
2018-05-27T22:03:01.739Z,1014.53
2018-05-27T22:04:03.121Z,1014.53
2018-05-27T22:05:04.512Z,1014.54
2018-05-27T22:06:05.892Z,1014.55
2018-05-27T22:07:07.288Z,1014.52
2018-05-27T22:08:08.680Z,1014.53
2018-05-27T22:09:10.068Z,1014.52
2018-05-27T22:10:11.450Z,1014.49
2018-05-27T22:11:12.846Z,1014.54
2018-05-27T22:12:14.241Z,1014.52
2018-05-27T22:13:15.632Z,1014.53
2018-05-27T22:14:17.020Z,1014.52
2018-05-27T22:15:18.416Z,1014.50
2018-05-27T22:16:19.799Z,1014.49
2018-05-27T22:17:21.195Z,1014.54
2018-05-27T22:18:22.599Z,1014.51
2018-05-27T22:19:23.985Z,1014.50
2018-05-27T22:20:25.365Z,1014.51
2018-05-27T22:21:26.759Z,1014.51
2018-05-27T22:22:28.147Z,1014.53
2018-05-27T22:23:29.531Z,1014.52
2018-05-27T22:24:30.911Z,1014.52
2018-05-27T22:25:32.313Z,1014.47
2018-05-27T22:26:33.701Z,1014.52
2018-05-27T22:27:35.092Z,1014.51
2018-05-27T22:28:36.487Z,1014.50
2018-05-27T22:29:37.868Z,1014.49
2018-05-27T22:30:39.262Z,1014.50
2018-05-27T22:31:40.648Z,1014.47
2018-05-27T22:32:42.050Z,1014.52
2018-05-27T22:33:43.432Z,1014.53
2018-05-27T22:34:44.832Z,1014.51
2018-05-27T22:35:46.206Z,1014.54
2018-05-27T22:36:47.590Z,1014.47
2018-05-27T22:37:49.072Z,1014.48
2018-05-27T22:38:51.020Z,1014.50
2018-05-27T22:39:52.437Z,1014.46
2018-05-27T22:40:53.839Z,1014.49
2018-05-27T22:41:55.212Z,1014.51
2018-05-27T22:42:56.607Z,1014.49
2018-05-27T22:43:57.995Z,1014.52
2018-05-27T22:44:59.373Z,1014.50
2018-05-27T22:46:00.757Z,1014.45
2018-05-27T22:47:02.157Z,1014.44
2018-05-27T22:48:03.556Z,1014.43
2018-05-27T22:49:04.931Z,1014.45
2018-05-27T22:50:06.333Z,1014.46
2018-05-27T22:51:07.704Z,1014.42
2018-05-27T22:52:09.107Z,1014.47
2018-05-27T22:53:10.492Z,1014.40
2018-05-27T22:54:11.888Z,1014.43
2018-05-27T22:55:13.281Z,1014.45
2018-05-27T22:56:14.678Z,1014.46
2018-05-27T22:57:16.062Z,1014.53
2018-05-27T22:58:17.445Z,1014.49
2018-05-27T22:59:18.847Z,1014.48
2018-05-27T23:00:20.235Z,1014.49
2018-05-27T23:01:21.624Z,1014.46
2018-05-27T23:02:23.014Z,1014.49
2018-05-27T23:03:24.404Z,1014.45
2018-05-27T23:04:25.785Z,1014.51
2018-05-27T23:05:27.183Z,1014.55
2018-05-27T23:06:28.576Z,1014.51
2018-05-27T23:07:30.017Z,1014.55
2018-05-27T23:08:31.362Z,1014.47
2018-05-27T23:09:32.742Z,1014.53
2018-05-27T23:10:34.127Z,1014.46
2018-05-27T23:11:35.513Z,1014.50
2018-05-27T23:12:36.909Z,1014.50
2018-05-27T23:13:38.283Z,1014.51
2018-05-27T23:14:39.666Z,1014.55
2018-05-27T23:15:41.049Z,1014.54
2018-05-27T23:16:42.447Z,1014.54
2018-05-27T23:17:43.827Z,1014.53
2018-05-27T23:18:45.225Z,1014.49
2018-05-27T23:19:46.610Z,1014.53
2018-05-27T23:20:47.995Z,1014.49
2018-05-27T23:21:49.386Z,1014.51
2018-05-27T23:22:50.790Z,1014.48
2018-05-27T23:23:52.176Z,1014.42
2018-05-27T23:24:53.566Z,1014.41
2018-05-27T23:25:54.973Z,1014.44
2018-05-27T23:26:56.356Z,1014.43
2018-05-27T23:27:57.748Z,1014.41
2018-05-27T23:28:59.134Z,1014.44
2018-05-27T23:30:00.516Z,1014.48
2018-05-27T23:31:01.910Z,1014.47
2018-05-27T23:32:03.298Z,1014.47
2018-05-27T23:33:04.698Z,1014.42
2018-05-27T23:34:06.082Z,1014.42
2018-05-27T23:35:07.467Z,1014.44
2018-05-27T23:36:08.930Z,1014.38
2018-05-27T23:37:10.212Z,1014.41
2018-05-27T23:38:11.590Z,1014.38
2018-05-27T23:39:12.977Z,1014.35
2018-05-27T23:40:14.363Z,1014.36
2018-05-27T23:41:15.763Z,1014.37
2018-05-27T23:42:17.148Z,1014.37
2018-05-27T23:43:18.528Z,1014.37
2018-05-27T23:44:19.919Z,1014.32
2018-05-27T23:45:21.306Z,1014.32
2018-05-27T23:46:22.701Z,1014.32
2018-05-27T23:47:24.081Z,1014.36
2018-05-27T23:48:25.993Z,1014.35
2018-05-27T23:49:27.391Z,1014.40
2018-05-27T23:50:28.772Z,1014.35
2018-05-27T23:51:30.169Z,1014.40
2018-05-27T23:52:31.574Z,1014.43
2018-05-27T23:53:32.954Z,1014.45
2018-05-27T23:54:34.345Z,1014.44
2018-05-27T23:55:35.730Z,1014.45
2018-05-27T23:56:37.124Z,1014.43
2018-05-27T23:57:38.510Z,1014.51
2018-05-27T23:58:39.898Z,1014.53
2018-05-27T23:59:41.296Z,1014.53
